sensor_id;sensor_type;location;lat;lon;timestamp;P1;durP1;ratioP1;P2;durP2;ratioP2
44197;SDS011;30157;55.512;37.764;2022-12-07T00:01:38;7.10;;;2.85;;
44197;SDS011;30157;55.512;37.764;2022-12-07T00:04:06;5.82;;;2.83;;
44197;SDS011;30157;55.512;37.764;2022-12-07T00:06:35;10.60;;;4.20;;
44197;SDS011;30157;55.512;37.764;2022-12-07T00:09:04;6.85;;;2.97;;
44197;SDS011;30157;55.512;37.764;2022-12-07T00:11:31;8.60;;;3.30;;
44197;SDS011;30157;55.512;37.764;2022-12-07T00:13:58;7.10;;;3.17;;
44197;SDS011;30157;55.512;37.764;2022-12-07T00:16:27;7.80;;;2.85;;
44197;SDS011;30157;55.512;37.764;2022-12-07T00:18:54;6.78;;;3.33;;
44197;SDS011;30157;55.512;37.764;2022-12-07T00:21:21;6.95;;;2.67;;
44197;SDS011;30157;55.512;37.764;2022-12-07T00:23:49;11.80;;;3.58;;
44197;SDS011;30157;55.512;37.764;2022-12-07T00:26:18;6.47;;;2.72;;
44197;SDS011;30157;55.512;37.764;2022-12-07T00:28:46;8.68;;;3.78;;
44197;SDS011;30157;55.512;37.764;2022-12-07T00:31:17;7.32;;;2.78;;
44197;SDS011;30157;55.512;37.764;2022-12-07T00:33:44;9.13;;;3.03;;
44197;SDS011;30157;55.512;37.764;2022-12-07T00:36:14;6.22;;;3.50;;
44197;SDS011;30157;55.512;37.764;2022-12-07T00:38:42;4.80;;;3.03;;
44197;SDS011;30157;55.512;37.764;2022-12-07T00:41:15;8.35;;;3.22;;
44197;SDS011;30157;55.512;37.764;2022-12-07T00:43:45;6.88;;;2.70;;
44197;SDS011;30157;55.512;37.764;2022-12-07T00:46:12;6.70;;;2.90;;
44197;SDS011;30157;55.512;37.764;2022-12-07T00:48:39;5.10;;;2.63;;
44197;SDS011;30157;55.512;37.764;2022-12-07T00:51:05;6.72;;;3.53;;
44197;SDS011;30157;55.512;37.764;2022-12-07T00:53:33;8.85;;;3.15;;
44197;SDS011;30157;55.512;37.764;2022-12-07T00:56:06;7.65;;;3.00;;
44197;SDS011;30157;55.512;37.764;2022-12-07T00:58:37;4.80;;;2.20;;
44197;SDS011;30157;55.512;37.764;2022-12-07T01:01:04;7.25;;;3.05;;
44197;SDS011;30157;55.512;37.764;2022-12-07T01:03:31;6.28;;;3.47;;
44197;SDS011;30157;55.512;37.764;2022-12-07T01:05:57;6.10;;;2.88;;
44197;SDS011;30157;55.512;37.764;2022-12-07T01:08:24;9.60;;;3.55;;
44197;SDS011;30157;55.512;37.764;2022-12-07T01:11:01;8.02;;;2.60;;
44197;SDS011;30157;55.512;37.764;2022-12-07T01:13:29;7.85;;;3.28;;
44197;SDS011;30157;55.512;37.764;2022-12-07T01:15:58;7.97;;;3.28;;
44197;SDS011;30157;55.512;37.764;2022-12-07T01:18:28;5.60;;;2.40;;
44197;SDS011;30157;55.512;37.764;2022-12-07T01:23:24;6.90;;;3.35;;
44197;SDS011;30157;55.512;37.764;2022-12-07T01:25:56;6.60;;;3.10;;
44197;SDS011;30157;55.512;37.764;2022-12-07T01:28:23;6.97;;;3.28;;
44197;SDS011;30157;55.512;37.764;2022-12-07T01:30:58;7.25;;;3.42;;
44197;SDS011;30157;55.512;37.764;2022-12-07T01:33:30;11.63;;;4.18;;
44197;SDS011;30157;55.512;37.764;2022-12-07T01:36:06;9.10;;;3.20;;
44197;SDS011;30157;55.512;37.764;2022-12-07T01:38:33;8.93;;;2.80;;
44197;SDS011;30157;55.512;37.764;2022-12-07T01:41:00;7.50;;;3.03;;
44197;SDS011;30157;55.512;37.764;2022-12-07T01:43:28;8.05;;;3.83;;
44197;SDS011;30157;55.512;37.764;2022-12-07T01:45:55;7.57;;;3.83;;
44197;SDS011;30157;55.512;37.764;2022-12-07T01:48:23;9.60;;;3.47;;
44197;SDS011;30157;55.512;37.764;2022-12-07T01:50:53;8.00;;;3.63;;
44197;SDS011;30157;55.512;37.764;2022-12-07T01:53:22;7.35;;;3.42;;
44197;SDS011;30157;55.512;37.764;2022-12-07T01:55:51;8.20;;;3.20;;
44197;SDS011;30157;55.512;37.764;2022-12-07T01:58:18;7.30;;;3.50;;
44197;SDS011;30157;55.512;37.764;2022-12-07T02:00:45;7.45;;;3.70;;
44197;SDS011;30157;55.512;37.764;2022-12-07T02:03:25;7.28;;;3.00;;
44197;SDS011;30157;55.512;37.764;2022-12-07T02:05:57;10.57;;;3.65;;
44197;SDS011;30157;55.512;37.764;2022-12-07T02:08:25;8.50;;;3.28;;
44197;SDS011;30157;55.512;37.764;2022-12-07T02:10:51;6.20;;;3.10;;
44197;SDS011;30157;55.512;37.764;2022-12-07T02:13:21;6.95;;;3.28;;
44197;SDS011;30157;55.512;37.764;2022-12-07T02:18:42;9.52;;;3.22;;
44197;SDS011;30157;55.512;37.764;2022-12-07T02:21:20;7.18;;;3.17;;
44197;SDS011;30157;55.512;37.764;2022-12-07T02:40:51;5.88;;;2.75;;
44197;SDS011;30157;55.512;37.764;2022-12-07T02:43:20;8.82;;;3.28;;
44197;SDS011;30157;55.512;37.764;2022-12-07T02:45:50;6.78;;;3.15;;
44197;SDS011;30157;55.512;37.764;2022-12-07T02:48:19;8.43;;;3.53;;
44197;SDS011;30157;55.512;37.764;2022-12-07T02:50:49;6.43;;;2.63;;
44197;SDS011;30157;55.512;37.764;2022-12-07T02:55:58;7.32;;;3.00;;
44197;SDS011;30157;55.512;37.764;2022-12-07T03:02:08;7.50;;;3.13;;
44197;SDS011;30157;55.512;37.764;2022-12-07T03:07:05;7.38;;;2.95;;
44197;SDS011;30157;55.512;37.764;2022-12-07T03:09:45;7.03;;;3.05;;
44197;SDS011;30157;55.512;37.764;2022-12-07T03:15:49;8.25;;;2.95;;
44197;SDS011;30157;55.512;37.764;2022-12-07T03:21:38;6.47;;;2.28;;
44197;SDS011;30157;55.512;37.764;2022-12-07T03:24:14;4.03;;;1.98;;
44197;SDS011;30157;55.512;37.764;2022-12-07T03:27:26;6.80;;;3.13;;
44197;SDS011;30157;55.512;37.764;2022-12-07T03:29:41;5.72;;;3.33;;
44197;SDS011;30157;55.512;37.764;2022-12-07T03:32:55;5.43;;;2.90;;
44197;SDS011;30157;55.512;37.764;2022-12-07T03:35:14;7.47;;;2.90;;
44197;SDS011;30157;55.512;37.764;2022-12-07T03:40:36;7.95;;;3.55;;
44197;SDS011;30157;55.512;37.764;2022-12-07T03:43:05;5.93;;;3.00;;
44197;SDS011;30157;55.512;37.764;2022-12-07T03:48:20;7.00;;;3.08;;
44197;SDS011;30157;55.512;37.764;2022-12-07T03:54:24;7.28;;;3.20;;
44197;SDS011;30157;55.512;37.764;2022-12-07T03:56:55;8.10;;;3.35;;
44197;SDS011;30157;55.512;37.764;2022-12-07T03:59:23;6.05;;;2.67;;
44197;SDS011;30157;55.512;37.764;2022-12-07T04:01:51;6.05;;;2.55;;
44197;SDS011;30157;55.512;37.764;2022-12-07T04:04:19;7.65;;;3.30;;
44197;SDS011;30157;55.512;37.764;2022-12-07T04:06:46;6.68;;;2.97;;
44197;SDS011;30157;55.512;37.764;2022-12-07T04:09:11;6.20;;;2.47;;
44197;SDS011;30157;55.512;37.764;2022-12-07T04:11:39;6.05;;;2.92;;
44197;SDS011;30157;55.512;37.764;2022-12-07T04:14:08;6.57;;;3.55;;
44197;SDS011;30157;55.512;37.764;2022-12-07T04:16:50;7.25;;;3.55;;
44197;SDS011;30157;55.512;37.764;2022-12-07T04:19:19;6.75;;;2.97;;
44197;SDS011;30157;55.512;37.764;2022-12-07T04:21:46;6.30;;;3.03;;
44197;SDS011;30157;55.512;37.764;2022-12-07T04:24:13;7.35;;;3.15;;
44197;SDS011;30157;55.512;37.764;2022-12-07T04:26:40;5.97;;;2.85;;
44197;SDS011;30157;55.512;37.764;2022-12-07T04:29:07;7.18;;;2.50;;
44197;SDS011;30157;55.512;37.764;2022-12-07T04:31:34;10.48;;;3.95;;
44197;SDS011;30157;55.512;37.764;2022-12-07T04:34:03;6.20;;;3.03;;
44197;SDS011;30157;55.512;37.764;2022-12-07T04:36:30;10.45;;;3.60;;
44197;SDS011;30157;55.512;37.764;2022-12-07T04:38:57;9.82;;;3.85;;
44197;SDS011;30157;55.512;37.764;2022-12-07T04:41:23;8.02;;;3.42;;
44197;SDS011;30157;55.512;37.764;2022-12-07T05:17:48;11.35;;;4.72;;
44197;SDS011;30157;55.512;37.764;2022-12-07T05:20:39;5.88;;;3.08;;
44197;SDS011;30157;55.512;37.764;2022-12-07T05:23:05;11.85;;;5.30;;
44197;SDS011;30157;55.512;37.764;2022-12-07T05:25:30;15.20;;;5.47;;
44197;SDS011;30157;55.512;37.764;2022-12-07T05:27:56;13.70;;;4.55;;
44197;SDS011;30157;55.512;37.764;2022-12-07T05:30:23;10.43;;;4.32;;
44197;SDS011;30157;55.512;37.764;2022-12-07T05:32:50;9.50;;;3.30;;
44197;SDS011;30157;55.512;37.764;2022-12-07T05:35:16;9.02;;;2.72;;
44197;SDS011;30157;55.512;37.764;2022-12-07T05:37:43;12.85;;;5.50;;
44197;SDS011;30157;55.512;37.764;2022-12-07T05:40:09;11.75;;;4.57;;
44197;SDS011;30157;55.512;37.764;2022-12-07T05:42:35;11.13;;;4.38;;
44197;SDS011;30157;55.512;37.764;2022-12-07T05:45:01;11.27;;;4.80;;
44197;SDS011;30157;55.512;37.764;2022-12-07T05:47:29;10.10;;;4.70;;
44197;SDS011;30157;55.512;37.764;2022-12-07T05:49:55;14.68;;;5.38;;
44197;SDS011;30157;55.512;37.764;2022-12-07T05:52:21;11.23;;;4.25;;
44197;SDS011;30157;55.512;37.764;2022-12-07T05:54:47;8.93;;;4.47;;
44197;SDS011;30157;55.512;37.764;2022-12-07T05:57:13;11.07;;;4.93;;
44197;SDS011;30157;55.512;37.764;2022-12-07T05:59:39;8.70;;;3.35;;
44197;SDS011;30157;55.512;37.764;2022-12-07T06:02:09;11.73;;;6.25;;
44197;SDS011;30157;55.512;37.764;2022-12-07T06:04:39;13.35;;;6.18;;
44197;SDS011;30157;55.512;37.764;2022-12-07T06:07:07;13.38;;;4.78;;
44197;SDS011;30157;55.512;37.764;2022-12-07T06:09:34;12.05;;;5.18;;
44197;SDS011;30157;55.512;37.764;2022-12-07T06:12:00;6.15;;;3.20;;
44197;SDS011;30157;55.512;37.764;2022-12-07T06:15:10;12.23;;;5.35;;
44197;SDS011;30157;55.512;37.764;2022-12-07T06:17:38;10.68;;;4.63;;
44197;SDS011;30157;55.512;37.764;2022-12-07T06:22:55;6.43;;;3.05;;
44197;SDS011;30157;55.512;37.764;2022-12-07T06:25:21;11.00;;;5.30;;
44197;SDS011;30157;55.512;37.764;2022-12-07T06:27:47;9.52;;;4.88;;
44197;SDS011;30157;55.512;37.764;2022-12-07T06:30:12;12.43;;;5.78;;
44197;SDS011;30157;55.512;37.764;2022-12-07T06:32:38;9.75;;;4.22;;
44197;SDS011;30157;55.512;37.764;2022-12-07T06:35:04;9.45;;;4.60;;
44197;SDS011;30157;55.512;37.764;2022-12-07T06:37:30;14.10;;;6.15;;
44197;SDS011;30157;55.512;37.764;2022-12-07T06:39:55;8.98;;;4.43;;
44197;SDS011;30157;55.512;37.764;2022-12-07T06:42:21;13.32;;;5.55;;
44197;SDS011;30157;55.512;37.764;2022-12-07T06:44:47;11.77;;;5.53;;
44197;SDS011;30157;55.512;37.764;2022-12-07T06:47:13;10.65;;;5.22;;
44197;SDS011;30157;55.512;37.764;2022-12-07T06:49:38;10.38;;;4.95;;
44197;SDS011;30157;55.512;37.764;2022-12-07T06:52:04;10.95;;;5.45;;
44197;SDS011;30157;55.512;37.764;2022-12-07T06:54:30;11.77;;;5.38;;
44197;SDS011;30157;55.512;37.764;2022-12-07T06:56:56;11.00;;;5.38;;
44197;SDS011;30157;55.512;37.764;2022-12-07T06:59:22;11.95;;;5.57;;
44197;SDS011;30157;55.512;37.764;2022-12-07T07:01:47;12.98;;;5.50;;
44197;SDS011;30157;55.512;37.764;2022-12-07T07:04:13;9.25;;;4.97;;
44197;SDS011;30157;55.512;37.764;2022-12-07T07:06:39;10.07;;;5.18;;
44197;SDS011;30157;55.512;37.764;2022-12-07T07:09:06;9.95;;;4.95;;
44197;SDS011;30157;55.512;37.764;2022-12-07T07:11:31;9.60;;;4.55;;
44197;SDS011;30157;55.512;37.764;2022-12-07T07:13:57;9.90;;;4.65;;
44197;SDS011;30157;55.512;37.764;2022-12-07T07:16:27;9.63;;;4.97;;
44197;SDS011;30157;55.512;37.764;2022-12-07T07:18:56;10.85;;;5.43;;
44197;SDS011;30157;55.512;37.764;2022-12-07T07:21:22;11.77;;;5.28;;
44197;SDS011;30157;55.512;37.764;2022-12-07T07:23:48;9.82;;;4.88;;
44197;SDS011;30157;55.512;37.764;2022-12-07T07:26:13;11.43;;;4.82;;
44197;SDS011;30157;55.512;37.764;2022-12-07T07:28:39;8.75;;;4.65;;
44197;SDS011;30157;55.512;37.764;2022-12-07T07:31:05;9.75;;;4.78;;
44197;SDS011;30157;55.512;37.764;2022-12-07T07:33:30;9.20;;;4.40;;
44197;SDS011;30157;55.512;37.764;2022-12-07T07:35:56;9.05;;;4.90;;
44197;SDS011;30157;55.512;37.764;2022-12-07T07:38:22;10.38;;;5.03;;
44197;SDS011;30157;55.512;37.764;2022-12-07T07:40:47;8.75;;;4.47;;
44197;SDS011;30157;55.512;37.764;2022-12-07T07:43:13;9.77;;;5.05;;
44197;SDS011;30157;55.512;37.764;2022-12-07T07:45:39;11.23;;;4.82;;
44197;SDS011;30157;55.512;37.764;2022-12-07T07:48:05;12.32;;;5.70;;
44197;SDS011;30157;55.512;37.764;2022-12-07T07:50:31;9.38;;;5.07;;
44197;SDS011;30157;55.512;37.764;2022-12-07T07:52:58;9.80;;;5.00;;
44197;SDS011;30157;55.512;37.764;2022-12-07T07:55:24;10.63;;;5.43;;
44197;SDS011;30157;55.512;37.764;2022-12-07T07:57:50;10.95;;;4.65;;
44197;SDS011;30157;55.512;37.764;2022-12-07T08:00:15;9.77;;;5.03;;
44197;SDS011;30157;55.512;37.764;2022-12-07T08:02:42;8.88;;;4.82;;
44197;SDS011;30157;55.512;37.764;2022-12-07T08:05:08;10.75;;;5.75;;
44197;SDS011;30157;55.512;37.764;2022-12-07T08:07:36;11.02;;;5.43;;
44197;SDS011;30157;55.512;37.764;2022-12-07T08:10:01;7.45;;;4.13;;
44197;SDS011;30157;55.512;37.764;2022-12-07T08:12:29;9.18;;;4.95;;
44197;SDS011;30157;55.512;37.764;2022-12-07T08:14:55;11.30;;;6.13;;
44197;SDS011;30157;55.512;37.764;2022-12-07T08:17:20;11.60;;;5.00;;
44197;SDS011;30157;55.512;37.764;2022-12-07T08:19:46;10.70;;;5.07;;
44197;SDS011;30157;55.512;37.764;2022-12-07T08:22:12;10.27;;;4.97;;
44197;SDS011;30157;55.512;37.764;2022-12-07T08:24:37;10.35;;;5.18;;
44197;SDS011;30157;55.512;37.764;2022-12-07T08:27:03;8.90;;;4.93;;
44197;SDS011;30157;55.512;37.764;2022-12-07T08:29:29;11.15;;;5.30;;
44197;SDS011;30157;55.512;37.764;2022-12-07T08:31:55;9.38;;;4.53;;
44197;SDS011;30157;55.512;37.764;2022-12-07T08:34:21;9.55;;;4.63;;
44197;SDS011;30157;55.512;37.764;2022-12-07T08:36:46;10.02;;;4.57;;
44197;SDS011;30157;55.512;37.764;2022-12-07T08:39:12;9.90;;;5.30;;
44197;SDS011;30157;55.512;37.764;2022-12-07T08:41:38;10.20;;;5.18;;
44197;SDS011;30157;55.512;37.764;2022-12-07T08:44:04;9.63;;;4.47;;
44197;SDS011;30157;55.512;37.764;2022-12-07T08:49:10;9.60;;;5.25;;
44197;SDS011;30157;55.512;37.764;2022-12-07T08:51:39;12.23;;;5.10;;
44197;SDS011;30157;55.512;37.764;2022-12-07T08:54:06;11.25;;;4.97;;
44197;SDS011;30157;55.512;37.764;2022-12-07T08:56:35;10.45;;;4.63;;
44197;SDS011;30157;55.512;37.764;2022-12-07T08:59:01;9.00;;;4.55;;
44197;SDS011;30157;55.512;37.764;2022-12-07T09:01:28;10.65;;;5.35;;
44197;SDS011;30157;55.512;37.764;2022-12-07T09:03:53;10.85;;;5.10;;
44197;SDS011;30157;55.512;37.764;2022-12-07T09:06:19;9.00;;;5.00;;
44197;SDS011;30157;55.512;37.764;2022-12-07T09:08:46;13.07;;;5.40;;
44197;SDS011;30157;55.512;37.764;2022-12-07T09:11:15;10.00;;;5.05;;
44197;SDS011;30157;55.512;37.764;2022-12-07T09:13:41;10.85;;;4.85;;
44197;SDS011;30157;55.512;37.764;2022-12-07T09:16:06;7.30;;;4.15;;
44197;SDS011;30157;55.512;37.764;2022-12-07T09:18:32;8.73;;;4.22;;
44197;SDS011;30157;55.512;37.764;2022-12-07T09:20:58;9.45;;;4.35;;
44197;SDS011;30157;55.512;37.764;2022-12-07T09:23:24;8.13;;;4.43;;
44197;SDS011;30157;55.512;37.764;2022-12-07T09:25:50;8.10;;;4.03;;
44197;SDS011;30157;55.512;37.764;2022-12-07T09:28:16;9.18;;;4.20;;
44197;SDS011;30157;55.512;37.764;2022-12-07T09:30:46;8.48;;;4.55;;
44197;SDS011;30157;55.512;37.764;2022-12-07T09:33:13;10.27;;;4.75;;
44197;SDS011;30157;55.512;37.764;2022-12-07T09:35:48;12.18;;;4.60;;
44197;SDS011;30157;55.512;37.764;2022-12-07T09:38:16;8.98;;;4.90;;
44197;SDS011;30157;55.512;37.764;2022-12-07T09:40:42;10.63;;;4.10;;
44197;SDS011;30157;55.512;37.764;2022-12-07T09:43:16;7.55;;;4.10;;
44197;SDS011;30157;55.512;37.764;2022-12-07T09:45:44;11.48;;;4.97;;
44197;SDS011;30157;55.512;37.764;2022-12-07T09:48:16;7.70;;;3.25;;
44197;SDS011;30157;55.512;37.764;2022-12-07T09:50:45;10.93;;;4.70;;
44197;SDS011;30157;55.512;37.764;2022-12-07T09:53:30;8.75;;;4.18;;
44197;SDS011;30157;55.512;37.764;2022-12-07T09:56:01;7.35;;;3.80;;
44197;SDS011;30157;55.512;37.764;2022-12-07T09:58:28;9.55;;;4.45;;
44197;SDS011;30157;55.512;37.764;2022-12-07T10:00:59;10.43;;;4.47;;
44197;SDS011;30157;55.512;37.764;2022-12-07T10:03:27;10.07;;;5.18;;
44197;SDS011;30157;55.512;37.764;2022-12-07T10:05:54;11.38;;;4.35;;
44197;SDS011;30157;55.512;37.764;2022-12-07T10:08:21;9.77;;;4.88;;
44197;SDS011;30157;55.512;37.764;2022-12-07T10:10:52;9.88;;;4.13;;
44197;SDS011;30157;55.512;37.764;2022-12-07T10:13:20;11.65;;;5.30;;
44197;SDS011;30157;55.512;37.764;2022-12-07T10:18:30;9.55;;;4.60;;
44197;SDS011;30157;55.512;37.764;2022-12-07T10:21:31;10.00;;;4.00;;
44197;SDS011;30157;55.512;37.764;2022-12-07T10:26:40;9.55;;;4.10;;
44197;SDS011;30157;55.512;37.764;2022-12-07T10:29:17;12.50;;;4.90;;
44197;SDS011;30157;55.512;37.764;2022-12-07T10:34:40;7.43;;;3.58;;
44197;SDS011;30157;55.512;37.764;2022-12-07T10:42:26;11.73;;;5.43;;
44197;SDS011;30157;55.512;37.764;2022-12-07T10:45:08;12.70;;;5.15;;
44197;SDS011;30157;55.512;37.764;2022-12-07T11:01:41;11.15;;;3.78;;
44197;SDS011;30157;55.512;37.764;2022-12-07T11:07:07;10.52;;;5.05;;
44197;SDS011;30157;55.512;37.764;2022-12-07T11:15:24;9.85;;;5.07;;
44197;SDS011;30157;55.512;37.764;2022-12-07T11:18:04;12.52;;;5.30;;
44197;SDS011;30157;55.512;37.764;2022-12-07T11:23:48;7.53;;;3.55;;
44197;SDS011;30157;55.512;37.764;2022-12-07T11:31:38;8.48;;;4.80;;
44197;SDS011;30157;55.512;37.764;2022-12-07T11:34:41;9.45;;;4.47;;
44197;SDS011;30157;55.512;37.764;2022-12-07T11:37:20;10.82;;;4.68;;
44197;SDS011;30157;55.512;37.764;2022-12-07T11:39:51;12.82;;;5.97;;
44197;SDS011;30157;55.512;37.764;2022-12-07T11:42:21;11.75;;;6.00;;
44197;SDS011;30157;55.512;37.764;2022-12-07T11:47:30;12.50;;;5.32;;
44197;SDS011;30157;55.512;37.764;2022-12-07T11:50:33;9.48;;;4.80;;
44197;SDS011;30157;55.512;37.764;2022-12-07T12:01:01;8.10;;;4.53;;
44197;SDS011;30157;55.512;37.764;2022-12-07T12:06:22;13.18;;;5.80;;
44197;SDS011;30157;55.512;37.764;2022-12-07T12:19:55;11.07;;;5.38;;
44197;SDS011;30157;55.512;37.764;2022-12-07T12:22:33;15.50;;;5.90;;
44197;SDS011;30157;55.512;37.764;2022-12-07T12:27:31;9.52;;;4.43;;
44197;SDS011;30157;55.512;37.764;2022-12-07T12:30:00;14.13;;;6.10;;
44197;SDS011;30157;55.512;37.764;2022-12-07T12:32:34;5.35;;;2.92;;
44197;SDS011;30157;55.512;37.764;2022-12-07T12:37:53;12.07;;;6.30;;
44197;SDS011;30157;55.512;37.764;2022-12-07T12:42:53;10.95;;;3.88;;
44197;SDS011;30157;55.512;37.764;2022-12-07T12:45:32;16.67;;;6.15;;
44197;SDS011;30157;55.512;37.764;2022-12-07T12:50:37;1.95;;;1.15;;
44197;SDS011;30157;55.512;37.764;2022-12-07T12:53:19;12.38;;;5.50;;
44197;SDS011;30157;55.512;37.764;2022-12-07T12:56:03;10.32;;;4.72;;
44197;SDS011;30157;55.512;37.764;2022-12-07T12:58:50;14.88;;;6.43;;
44197;SDS011;30157;55.512;37.764;2022-12-07T13:01:42;14.73;;;6.05;;
44197;SDS011;30157;55.512;37.764;2022-12-07T13:07:13;12.63;;;5.75;;
44197;SDS011;30157;55.512;37.764;2022-12-07T13:13:04;11.65;;;4.82;;
44197;SDS011;30157;55.512;37.764;2022-12-07T13:29:15;14.90;;;6.75;;
44197;SDS011;30157;55.512;37.764;2022-12-07T13:31:44;14.88;;;6.13;;
44197;SDS011;30157;55.512;37.764;2022-12-07T13:37:00;12.18;;;5.00;;
44197;SDS011;30157;55.512;37.764;2022-12-07T13:39:27;12.40;;;5.18;;
44197;SDS011;30157;55.512;37.764;2022-12-07T13:41:55;12.02;;;6.05;;
44197;SDS011;30157;55.512;37.764;2022-12-07T13:44:23;13.05;;;6.15;;
44197;SDS011;30157;55.512;37.764;2022-12-07T13:49:50;7.32;;;3.92;;
44197;SDS011;30157;55.512;37.764;2022-12-07T13:52:19;12.15;;;6.18;;
44197;SDS011;30157;55.512;37.764;2022-12-07T13:54:49;11.40;;;4.90;;
44197;SDS011;30157;55.512;37.764;2022-12-07T13:57:25;11.30;;;5.22;;
44197;SDS011;30157;55.512;37.764;2022-12-07T13:59:52;13.55;;;5.20;;
44197;SDS011;30157;55.512;37.764;2022-12-07T14:10:25;13.38;;;5.57;;
44197;SDS011;30157;55.512;37.764;2022-12-07T14:12:51;13.48;;;5.25;;
44197;SDS011;30157;55.512;37.764;2022-12-07T14:15:24;5.88;;;2.30;;
44197;SDS011;30157;55.512;37.764;2022-12-07T14:17:54;11.20;;;5.38;;
44197;SDS011;30157;55.512;37.764;2022-12-07T14:23:03;15.52;;;5.28;;
44197;SDS011;30157;55.512;37.764;2022-12-07T14:25:48;13.65;;;4.25;;
44197;SDS011;30157;55.512;37.764;2022-12-07T14:28:28;5.18;;;2.53;;
44197;SDS011;30157;55.512;37.764;2022-12-07T14:30:58;11.95;;;5.60;;
44197;SDS011;30157;55.512;37.764;2022-12-07T14:33:25;15.82;;;6.40;;
44197;SDS011;30157;55.512;37.764;2022-12-07T14:35:52;17.85;;;6.93;;
44197;SDS011;30157;55.512;37.764;2022-12-07T14:38:21;13.15;;;5.70;;
44197;SDS011;30157;55.512;37.764;2022-12-07T14:40:47;14.40;;;7.13;;
44197;SDS011;30157;55.512;37.764;2022-12-07T14:43:14;16.13;;;6.25;;
44197;SDS011;30157;55.512;37.764;2022-12-07T14:45:42;12.80;;;5.40;;
44197;SDS011;30157;55.512;37.764;2022-12-07T14:48:11;11.90;;;4.95;;
44197;SDS011;30157;55.512;37.764;2022-12-07T14:50:41;18.58;;;6.70;;
44197;SDS011;30157;55.512;37.764;2022-12-07T14:53:10;16.60;;;8.05;;
44197;SDS011;30157;55.512;37.764;2022-12-07T14:55:39;15.55;;;6.63;;
44197;SDS011;30157;55.512;37.764;2022-12-07T14:58:05;12.02;;;5.75;;
44197;SDS011;30157;55.512;37.764;2022-12-07T15:00:31;13.80;;;6.40;;
44197;SDS011;30157;55.512;37.764;2022-12-07T15:02:56;12.25;;;5.07;;
44197;SDS011;30157;55.512;37.764;2022-12-07T15:05:22;12.93;;;5.43;;
44197;SDS011;30157;55.512;37.764;2022-12-07T15:07:49;8.98;;;4.38;;
44197;SDS011;30157;55.512;37.764;2022-12-07T15:10:17;14.40;;;6.07;;
44197;SDS011;30157;55.512;37.764;2022-12-07T15:12:55;15.00;;;5.90;;
44197;SDS011;30157;55.512;37.764;2022-12-07T15:15:41;14.35;;;5.55;;
44197;SDS011;30157;55.512;37.764;2022-12-07T15:18:07;11.52;;;5.38;;
44197;SDS011;30157;55.512;37.764;2022-12-07T15:20:33;10.00;;;4.63;;
44197;SDS011;30157;55.512;37.764;2022-12-07T15:22:58;15.27;;;6.82;;
44197;SDS011;30157;55.512;37.764;2022-12-07T15:25:24;13.77;;;6.35;;
44197;SDS011;30157;55.512;37.764;2022-12-07T15:27:50;11.00;;;5.00;;
44197;SDS011;30157;55.512;37.764;2022-12-07T15:30:16;10.93;;;5.43;;
44197;SDS011;30157;55.512;37.764;2022-12-07T15:32:41;15.60;;;7.18;;
44197;SDS011;30157;55.512;37.764;2022-12-07T15:35:07;17.42;;;7.30;;
44197;SDS011;30157;55.512;37.764;2022-12-07T15:37:33;12.57;;;5.85;;
44197;SDS011;30157;55.512;37.764;2022-12-07T15:39:59;14.40;;;6.85;;
44197;SDS011;30157;55.512;37.764;2022-12-07T15:42:24;15.80;;;7.05;;
44197;SDS011;30157;55.512;37.764;2022-12-07T15:44:50;14.35;;;6.75;;
44197;SDS011;30157;55.512;37.764;2022-12-07T15:47:36;16.20;;;5.43;;
44197;SDS011;30157;55.512;37.764;2022-12-07T15:50:05;14.32;;;6.30;;
44197;SDS011;30157;55.512;37.764;2022-12-07T15:52:33;16.92;;;6.68;;
44197;SDS011;30157;55.512;37.764;2022-12-07T15:55:01;6.45;;;3.25;;
44197;SDS011;30157;55.512;37.764;2022-12-07T15:57:29;16.83;;;6.40;;
44197;SDS011;30157;55.512;37.764;2022-12-07T15:59:56;15.48;;;6.30;;
44197;SDS011;30157;55.512;37.764;2022-12-07T16:02:21;18.88;;;4.30;;
44197;SDS011;30157;55.512;37.764;2022-12-07T16:04:48;13.63;;;6.15;;
44197;SDS011;30157;55.512;37.764;2022-12-07T16:07:15;14.88;;;5.45;;
44197;SDS011;30157;55.512;37.764;2022-12-07T16:09:42;13.60;;;6.03;;
44197;SDS011;30157;55.512;37.764;2022-12-07T16:12:09;14.10;;;5.63;;
44197;SDS011;30157;55.512;37.764;2022-12-07T16:14:35;11.82;;;5.25;;
44197;SDS011;30157;55.512;37.764;2022-12-07T16:17:01;9.20;;;4.25;;
44197;SDS011;30157;55.512;37.764;2022-12-07T16:19:27;14.05;;;6.32;;
44197;SDS011;30157;55.512;37.764;2022-12-07T16:21:53;15.88;;;6.60;;
44197;SDS011;30157;55.512;37.764;2022-12-07T16:24:19;14.18;;;5.22;;
44197;SDS011;30157;55.512;37.764;2022-12-07T16:26:44;14.75;;;6.60;;
44197;SDS011;30157;55.512;37.764;2022-12-07T16:29:11;16.08;;;6.25;;
44197;SDS011;30157;55.512;37.764;2022-12-07T16:31:38;13.95;;;6.22;;
44197;SDS011;30157;55.512;37.764;2022-12-07T16:34:04;14.35;;;6.55;;
44197;SDS011;30157;55.512;37.764;2022-12-07T16:36:30;5.00;;;3.08;;
44197;SDS011;30157;55.512;37.764;2022-12-07T16:38:57;11.98;;;4.57;;
44197;SDS011;30157;55.512;37.764;2022-12-07T16:41:24;8.50;;;3.70;;
44197;SDS011;30157;55.512;37.764;2022-12-07T16:43:50;16.67;;;6.03;;
44197;SDS011;30157;55.512;37.764;2022-12-07T16:46:16;13.48;;;6.05;;
44197;SDS011;30157;55.512;37.764;2022-12-07T16:48:42;20.20;;;6.70;;
44197;SDS011;30157;55.512;37.764;2022-12-07T16:51:09;13.23;;;5.57;;
44197;SDS011;30157;55.512;37.764;2022-12-07T16:53:37;13.68;;;4.82;;
44197;SDS011;30157;55.512;37.764;2022-12-07T16:56:04;17.40;;;5.93;;
44197;SDS011;30157;55.512;37.764;2022-12-07T16:58:34;14.48;;;4.78;;
44197;SDS011;30157;55.512;37.764;2022-12-07T17:01:08;13.07;;;6.05;;
44197;SDS011;30157;55.512;37.764;2022-12-07T17:03:44;13.18;;;6.13;;
44197;SDS011;30157;55.512;37.764;2022-12-07T17:06:14;11.05;;;4.95;;
44197;SDS011;30157;55.512;37.764;2022-12-07T17:08:45;13.02;;;6.13;;
44197;SDS011;30157;55.512;37.764;2022-12-07T17:11:12;13.30;;;6.07;;
44197;SDS011;30157;55.512;37.764;2022-12-07T17:13:39;12.27;;;5.68;;
44197;SDS011;30157;55.512;37.764;2022-12-07T17:16:24;11.10;;;4.23;;
44197;SDS011;30157;55.512;37.764;2022-12-07T17:18:50;12.27;;;4.85;;
44197;SDS011;30157;55.512;37.764;2022-12-07T17:21:16;13.60;;;5.95;;
44197;SDS011;30157;55.512;37.764;2022-12-07T17:23:42;13.98;;;5.05;;
44197;SDS011;30157;55.512;37.764;2022-12-07T17:26:09;11.10;;;4.60;;
44197;SDS011;30157;55.512;37.764;2022-12-07T17:28:37;15.95;;;6.43;;
44197;SDS011;30157;55.512;37.764;2022-12-07T17:31:04;14.35;;;6.00;;
44197;SDS011;30157;55.512;37.764;2022-12-07T17:33:31;13.35;;;5.68;;
44197;SDS011;30157;55.512;37.764;2022-12-07T17:35:58;13.65;;;5.88;;
44197;SDS011;30157;55.512;37.764;2022-12-07T17:38:24;12.70;;;4.32;;
44197;SDS011;30157;55.512;37.764;2022-12-07T17:40:50;13.88;;;5.90;;
44197;SDS011;30157;55.512;37.764;2022-12-07T17:43:16;12.15;;;5.38;;
44197;SDS011;30157;55.512;37.764;2022-12-07T17:45:41;13.65;;;5.30;;
44197;SDS011;30157;55.512;37.764;2022-12-07T17:48:07;13.57;;;6.00;;
44197;SDS011;30157;55.512;37.764;2022-12-07T17:50:33;13.75;;;5.38;;
44197;SDS011;30157;55.512;37.764;2022-12-07T17:53:17;12.02;;;6.05;;
44197;SDS011;30157;55.512;37.764;2022-12-07T17:55:43;12.75;;;4.63;;
44197;SDS011;30157;55.512;37.764;2022-12-07T17:58:09;9.70;;;4.30;;
44197;SDS011;30157;55.512;37.764;2022-12-07T18:00:35;14.23;;;5.32;;
44197;SDS011;30157;55.512;37.764;2022-12-07T18:03:06;10.73;;;5.07;;